Munson, Pennsylvania
Current Conditions -  °F | °C
As of 4:54 AM on Saturday 25 Oct 2014 (Local Time) from KFIG Reporting Station
Overcast Overcast  
Wind Chill: 42°   Ceiling: 4700
Heat Index: 44°   Visibility: 10mi
Dew Point: 40°   Wind: 5mph
Humidity: 85%   Direction: 210°SSW
Pressure: 29.94"   Gusts: NA
Location:  40.95°N, 78.17°W
Report Text: KFIG 250854Z AUTO 21004KT 10SM OVC047 07/04 A2994 RMK AO2 SLP141 T00670044 58009
Loading
Personal Weather Stations






























Interactive Weather Map
Tropical Storm Tracking
New forecast layout! Learn more

10-Day Weather Forecast

Advertisements
Track Severe Weather on mobile